sensor_id;sensor_type;location;lat;lon;timestamp;temperature;humidity
1411;DHT22;700;51.906;8.404;2022-11-09T00:03:08;17.00;99.90
1411;DHT22;700;51.906;8.404;2022-11-09T00:08:10;17.00;99.90
1411;DHT22;700;51.906;8.404;2022-11-09T00:13:11;16.90;99.90
1411;DHT22;700;51.906;8.404;2022-11-09T00:18:14;16.90;99.90
1411;DHT22;700;51.906;8.404;2022-11-09T00:23:15;17.00;99.90
1411;DHT22;700;51.906;8.404;2022-11-09T00:28:16;17.00;99.90
1411;DHT22;700;51.906;8.404;2022-11-09T00:33:16;17.00;99.90
1411;DHT22;700;51.906;8.404;2022-11-09T00:38:17;17.00;99.90
1411;DHT22;700;51.906;8.404;2022-11-09T00:43:18;16.90;99.90
1411;DHT22;700;51.906;8.404;2022-11-09T00:48:18;16.80;99.90
1411;DHT22;700;51.906;8.404;2022-11-09T00:53:23;16.80;99.90
1411;DHT22;700;51.906;8.404;2022-11-09T00:58:25;16.80;99.90
1411;DHT22;700;51.906;8.404;2022-11-09T01:03:26;16.90;99.90
1411;DHT22;700;51.906;8.404;2022-11-09T01:08:29;16.90;99.90
1411;DHT22;700;51.906;8.404;2022-11-09T01:13:30;16.80;99.90
1411;DHT22;700;51.906;8.404;2022-11-09T01:18:33;16.80;99.90
1411;DHT22;700;51.906;8.404;2022-11-09T01:23:35;16.80;99.90
1411;DHT22;700;51.906;8.404;2022-11-09T01:28:38;16.80;99.90
1411;DHT22;700;51.906;8.404;2022-11-09T01:33:42;16.90;99.90
1411;DHT22;700;51.906;8.404;2022-11-09T01:38:45;16.90;99.90
1411;DHT22;700;51.906;8.404;2022-11-09T01:44:06;16.90;99.90
1411;DHT22;700;51.906;8.404;2022-11-09T01:49:31;16.90;99.90
1411;DHT22;700;51.906;8.404;2022-11-09T01:54:39;16.90;99.90
1411;DHT22;700;51.906;8.404;2022-11-09T01:59:45;16.90;99.90
1411;DHT22;700;51.906;8.404;2022-11-09T02:05:01;16.90;99.90
1411;DHT22;700;51.906;8.404;2022-11-09T02:10:07;16.90;99.90
1411;DHT22;700;51.906;8.404;2022-11-09T02:15:10;16.90;99.90
1411;DHT22;700;51.906;8.404;2022-11-09T02:20:13;17.00;99.90
1411;DHT22;700;51.906;8.404;2022-11-09T02:25:15;16.90;99.90
1411;DHT22;700;51.906;8.404;2022-11-09T02:30:19;16.90;99.90
1411;DHT22;700;51.906;8.404;2022-11-09T02:35:25;16.80;99.90
1411;DHT22;700;51.906;8.404;2022-11-09T02:40:30;16.80;99.90
1411;DHT22;700;51.906;8.404;2022-11-09T02:45:34;16.80;99.90
1411;DHT22;700;51.906;8.404;2022-11-09T02:50:35;16.90;99.90
1411;DHT22;700;51.906;8.404;2022-11-09T02:55:36;16.70;99.90
1411;DHT22;700;51.906;8.404;2022-11-09T03:00:37;16.80;99.90
1411;DHT22;700;51.906;8.404;2022-11-09T03:05:37;16.60;99.90
1411;DHT22;700;51.906;8.404;2022-11-09T03:10:40;16.80;99.90
1411;DHT22;700;51.906;8.404;2022-11-09T03:15:41;16.70;99.90
1411;DHT22;700;51.906;8.404;2022-11-09T03:20:41;16.70;99.90
1411;DHT22;700;51.906;8.404;2022-11-09T03:25:44;16.60;99.90
1411;DHT22;700;51.906;8.404;2022-11-09T03:30:48;16.50;99.90
1411;DHT22;700;51.906;8.404;2022-11-09T03:35:48;16.50;99.90
1411;DHT22;700;51.906;8.404;2022-11-09T03:40:53;16.40;99.90
1411;DHT22;700;51.906;8.404;2022-11-09T03:45:59;16.40;99.90
1411;DHT22;700;51.906;8.404;2022-11-09T03:50:59;16.40;99.90
1411;DHT22;700;51.906;8.404;2022-11-09T03:56:02;16.30;99.90
1411;DHT22;700;51.906;8.404;2022-11-09T04:01:03;16.40;99.90
1411;DHT22;700;51.906;8.404;2022-11-09T04:06:06;16.30;99.90
1411;DHT22;700;51.906;8.404;2022-11-09T04:11:07;16.30;99.90
1411;DHT22;700;51.906;8.404;2022-11-09T04:16:09;16.30;99.90
1411;DHT22;700;51.906;8.404;2022-11-09T04:21:12;16.30;99.90
1411;DHT22;700;51.906;8.404;2022-11-09T04:26:13;16.40;99.90
1411;DHT22;700;51.906;8.404;2022-11-09T04:31:14;16.30;99.90
1411;DHT22;700;51.906;8.404;2022-11-09T04:36:14;16.10;99.90
1411;DHT22;700;51.906;8.404;2022-11-09T04:41:15;16.10;99.90
1411;DHT22;700;51.906;8.404;2022-11-09T04:46:15;16.30;99.90
1411;DHT22;700;51.906;8.404;2022-11-09T04:51:16;16.20;99.90
1411;DHT22;700;51.906;8.404;2022-11-09T04:56:17;16.30;99.90
1411;DHT22;700;51.906;8.404;2022-11-09T05:01:20;16.30;99.90
1411;DHT22;700;51.906;8.404;2022-11-09T05:06:20;16.20;99.90
1411;DHT22;700;51.906;8.404;2022-11-09T05:11:35;16.10;99.90
1411;DHT22;700;51.906;8.404;2022-11-09T05:16:36;16.00;99.90
1411;DHT22;700;51.906;8.404;2022-11-09T05:21:39;16.20;99.90
1411;DHT22;700;51.906;8.404;2022-11-09T05:26:41;16.20;99.90
1411;DHT22;700;51.906;8.404;2022-11-09T05:31:41;16.30;99.90
1411;DHT22;700;51.906;8.404;2022-11-09T05:36:42;16.20;99.90
1411;DHT22;700;51.906;8.404;2022-11-09T05:41:47;16.10;99.90
1411;DHT22;700;51.906;8.404;2022-11-09T05:46:47;16.20;99.90
1411;DHT22;700;51.906;8.404;2022-11-09T05:51:48;16.10;99.90
1411;DHT22;700;51.906;8.404;2022-11-09T05:56:53;16.10;99.90
1411;DHT22;700;51.906;8.404;2022-11-09T06:01:54;16.30;99.90
1411;DHT22;700;51.906;8.404;2022-11-09T06:06:54;16.30;99.90
1411;DHT22;700;51.906;8.404;2022-11-09T06:11:55;16.50;99.90
1411;DHT22;700;51.906;8.404;2022-11-09T06:17:01;16.30;99.90
1411;DHT22;700;51.906;8.404;2022-11-09T06:22:04;16.30;99.90
1411;DHT22;700;51.906;8.404;2022-11-09T06:27:07;16.30;99.90
1411;DHT22;700;51.906;8.404;2022-11-09T06:32:10;16.30;99.90
1411;DHT22;700;51.906;8.404;2022-11-09T06:37:10;16.20;99.90
1411;DHT22;700;51.906;8.404;2022-11-09T06:42:11;16.30;99.90
1411;DHT22;700;51.906;8.404;2022-11-09T06:47:12;16.30;99.90
1411;DHT22;700;51.906;8.404;2022-11-09T06:52:15;16.30;99.90
1411;DHT22;700;51.906;8.404;2022-11-09T06:57:16;16.20;99.90
1411;DHT22;700;51.906;8.404;2022-11-09T07:02:19;16.10;99.90
1411;DHT22;700;51.906;8.404;2022-11-09T07:07:22;16.30;99.90
1411;DHT22;700;51.906;8.404;2022-11-09T07:12:26;16.40;99.90
1411;DHT22;700;51.906;8.404;2022-11-09T07:17:29;16.50;99.90
1411;DHT22;700;51.906;8.404;2022-11-09T07:22:30;16.60;99.90
1411;DHT22;700;51.906;8.404;2022-11-09T07:27:36;16.40;99.90
1411;DHT22;700;51.906;8.404;2022-11-09T07:32:40;16.60;99.90
1411;DHT22;700;51.906;8.404;2022-11-09T07:37:43;16.60;99.90
1411;DHT22;700;51.906;8.404;2022-11-09T07:42:44;16.60;99.90
1411;DHT22;700;51.906;8.404;2022-11-09T07:47:47;16.60;99.90
1411;DHT22;700;51.906;8.404;2022-11-09T07:52:48;16.50;99.90
1411;DHT22;700;51.906;8.404;2022-11-09T07:57:48;16.60;99.90
1411;DHT22;700;51.906;8.404;2022-11-09T08:02:54;16.60;99.90
1411;DHT22;700;51.906;8.404;2022-11-09T08:07:56;16.70;99.90
1411;DHT22;700;51.906;8.404;2022-11-09T08:13:01;16.60;99.90
1411;DHT22;700;51.906;8.404;2022-11-09T08:18:04;16.70;99.90
1411;DHT22;700;51.906;8.404;2022-11-09T08:23:05;16.80;99.90
1411;DHT22;700;51.906;8.404;2022-11-09T08:28:06;17.10;99.90
1411;DHT22;700;51.906;8.404;2022-11-09T08:33:12;17.10;99.90
1411;DHT22;700;51.906;8.404;2022-11-09T08:38:13;17.10;99.90
1411;DHT22;700;51.906;8.404;2022-11-09T08:43:14;16.90;99.90
1411;DHT22;700;51.906;8.404;2022-11-09T08:48:17;16.60;99.90
1411;DHT22;700;51.906;8.404;2022-11-09T08:53:18;16.60;99.90
1411;DHT22;700;51.906;8.404;2022-11-09T08:58:19;16.70;99.90
1411;DHT22;700;51.906;8.404;2022-11-09T09:03:20;17.50;99.90
1411;DHT22;700;51.906;8.404;2022-11-09T09:08:20;17.20;99.90
1411;DHT22;700;51.906;8.404;2022-11-09T09:13:24;16.90;99.90
1411;DHT22;700;51.906;8.404;2022-11-09T09:18:25;17.20;99.90
1411;DHT22;700;51.906;8.404;2022-11-09T09:23:25;17.10;99.90
1411;DHT22;700;51.906;8.404;2022-11-09T09:28:26;17.10;99.90
1411;DHT22;700;51.906;8.404;2022-11-09T09:33:31;17.70;99.90
1411;DHT22;700;51.906;8.404;2022-11-09T09:38:32;18.70;99.90
1411;DHT22;700;51.906;8.404;2022-11-09T09:43:46;18.90;99.90
1411;DHT22;700;51.906;8.404;2022-11-09T09:48:52;18.70;99.90
1411;DHT22;700;51.906;8.404;2022-11-09T09:54:01;19.70;99.90
1411;DHT22;700;51.906;8.404;2022-11-09T09:59:11;20.60;99.90
1411;DHT22;700;51.906;8.404;2022-11-09T10:04:21;19.40;99.90
1411;DHT22;700;51.906;8.404;2022-11-09T10:09:26;19.70;99.90
1411;DHT22;700;51.906;8.404;2022-11-09T10:15:05;20.50;99.90
1411;DHT22;700;51.906;8.404;2022-11-09T10:20:21;22.00;99.90
1411;DHT22;700;51.906;8.404;2022-11-09T10:25:27;21.90;99.90
1411;DHT22;700;51.906;8.404;2022-11-09T10:30:28;21.60;99.90
1411;DHT22;700;51.906;8.404;2022-11-09T10:35:36;21.20;99.90
1411;DHT22;700;51.906;8.404;2022-11-09T10:40:41;21.10;99.90
1411;DHT22;700;51.906;8.404;2022-11-09T10:45:58;20.30;99.90
1411;DHT22;700;51.906;8.404;2022-11-09T10:51:04;19.90;99.90
1411;DHT22;700;51.906;8.404;2022-11-09T10:56:16;20.00;99.90
1411;DHT22;700;51.906;8.404;2022-11-09T11:01:20;20.40;99.90
1411;DHT22;700;51.906;8.404;2022-11-09T11:16:27;19.60;99.90
1411;DHT22;700;51.906;8.404;2022-11-09T11:21:31;19.90;99.90
1411;DHT22;700;51.906;8.404;2022-11-09T11:26:54;20.10;99.90
1411;DHT22;700;51.906;8.404;2022-11-09T11:31:56;20.20;99.90
1411;DHT22;700;51.906;8.404;2022-11-09T11:37:19;20.20;99.90
1411;DHT22;700;51.906;8.404;2022-11-09T11:42:45;19.90;99.90
1411;DHT22;700;51.906;8.404;2022-11-09T11:48:31;19.70;99.90
1411;DHT22;700;51.906;8.404;2022-11-09T12:15:22;20.90;99.90
1411;DHT22;700;51.906;8.404;2022-11-09T12:20:36;21.00;99.90
1411;DHT22;700;51.906;8.404;2022-11-09T12:36:05;20.60;99.90
1411;DHT22;700;51.906;8.404;2022-11-09T12:41:13;19.30;99.90
1411;DHT22;700;51.906;8.404;2022-11-09T12:46:17;18.80;99.90
1411;DHT22;700;51.906;8.404;2022-11-09T12:51:20;19.10;99.90
1411;DHT22;700;51.906;8.404;2022-11-09T12:56:28;18.60;99.90
1411;DHT22;700;51.906;8.404;2022-11-09T13:06:35;18.70;99.90
1411;DHT22;700;51.906;8.404;2022-11-09T13:11:41;18.90;99.90
1411;DHT22;700;51.906;8.404;2022-11-09T13:16:42;18.90;99.90
1411;DHT22;700;51.906;8.404;2022-11-09T13:21:45;20.30;99.90
1411;DHT22;700;51.906;8.404;2022-11-09T13:48:04;19.40;99.90
1411;DHT22;700;51.906;8.404;2022-11-09T13:58:40;18.60;99.90
1411;DHT22;700;51.906;8.404;2022-11-09T14:03:49;18.30;99.90
1411;DHT22;700;51.906;8.404;2022-11-09T14:08:52;18.30;99.90
1411;DHT22;700;51.906;8.404;2022-11-09T14:24:36;17.70;99.90
1411;DHT22;700;51.906;8.404;2022-11-09T14:45:22;17.70;99.90
1411;DHT22;700;51.906;8.404;2022-11-09T14:50:35;17.30;99.90
1411;DHT22;700;51.906;8.404;2022-11-09T14:55:37;17.50;99.90
1411;DHT22;700;51.906;8.404;2022-11-09T15:00:40;17.20;99.90
1411;DHT22;700;51.906;8.404;2022-11-09T15:05:45;17.20;99.90
1411;DHT22;700;51.906;8.404;2022-11-09T15:10:54;17.20;99.90
1411;DHT22;700;51.906;8.404;2022-11-09T15:15:55;17.10;99.90
1411;DHT22;700;51.906;8.404;2022-11-09T15:21:15;17.00;99.90
1411;DHT22;700;51.906;8.404;2022-11-09T15:26:28;16.90;99.90
1411;DHT22;700;51.906;8.404;2022-11-09T15:31:32;16.80;99.90
1411;DHT22;700;51.906;8.404;2022-11-09T15:36:36;16.80;99.90
1411;DHT22;700;51.906;8.404;2022-11-09T15:41:40;16.80;99.90
1411;DHT22;700;51.906;8.404;2022-11-09T15:46:44;16.60;99.90
1411;DHT22;700;51.906;8.404;2022-11-09T15:51:48;16.50;99.90
1411;DHT22;700;51.906;8.404;2022-11-09T15:56:51;16.60;99.90
1411;DHT22;700;51.906;8.404;2022-11-09T16:01:54;16.40;99.90
1411;DHT22;700;51.906;8.404;2022-11-09T16:07:00;16.40;99.90
1411;DHT22;700;51.906;8.404;2022-11-09T16:12:00;16.30;99.90
1411;DHT22;700;51.906;8.404;2022-11-09T16:17:01;16.10;99.90
1411;DHT22;700;51.906;8.404;2022-11-09T16:22:04;16.10;99.90
1411;DHT22;700;51.906;8.404;2022-11-09T16:27:07;16.20;99.90
1411;DHT22;700;51.906;8.404;2022-11-09T16:32:07;16.00;99.90
1411;DHT22;700;51.906;8.404;2022-11-09T16:37:08;15.90;99.90
1411;DHT22;700;51.906;8.404;2022-11-09T16:42:13;15.80;99.90
1411;DHT22;700;51.906;8.404;2022-11-09T16:47:18;15.80;99.90
1411;DHT22;700;51.906;8.404;2022-11-09T16:52:22;15.80;99.90
1411;DHT22;700;51.906;8.404;2022-11-09T16:57:23;15.90;99.90
1411;DHT22;700;51.906;8.404;2022-11-09T17:02:24;15.80;99.90
1411;DHT22;700;51.906;8.404;2022-11-09T17:07:27;15.70;99.90
1411;DHT22;700;51.906;8.404;2022-11-09T17:12:31;15.80;99.90
1411;DHT22;700;51.906;8.404;2022-11-09T17:17:32;15.80;99.90
1411;DHT22;700;51.906;8.404;2022-11-09T17:22:35;15.80;99.90
1411;DHT22;700;51.906;8.404;2022-11-09T17:27:39;15.70;99.90
1411;DHT22;700;51.906;8.404;2022-11-09T17:32:39;15.40;99.90
1411;DHT22;700;51.906;8.404;2022-11-09T17:37:42;15.30;99.90
1411;DHT22;700;51.906;8.404;2022-11-09T17:42:43;15.30;99.90
1411;DHT22;700;51.906;8.404;2022-11-09T17:47:43;15.30;99.90
1411;DHT22;700;51.906;8.404;2022-11-09T17:52:45;15.20;99.90
1411;DHT22;700;51.906;8.404;2022-11-09T17:57:47;15.10;99.90
1411;DHT22;700;51.906;8.404;2022-11-09T18:02:48;15.10;99.90
1411;DHT22;700;51.906;8.404;2022-11-09T18:07:49;15.20;99.90
1411;DHT22;700;51.906;8.404;2022-11-09T18:12:49;15.10;99.90
1411;DHT22;700;51.906;8.404;2022-11-09T18:17:50;15.00;99.90
1411;DHT22;700;51.906;8.404;2022-11-09T18:22:53;15.00;99.90
1411;DHT22;700;51.906;8.404;2022-11-09T18:27:59;15.00;99.90
1411;DHT22;700;51.906;8.404;2022-11-09T18:33:04;14.90;99.90
1411;DHT22;700;51.906;8.404;2022-11-09T18:38:07;15.10;99.90
1411;DHT22;700;51.906;8.404;2022-11-09T18:43:08;15.20;99.90
1411;DHT22;700;51.906;8.404;2022-11-09T18:48:08;14.70;99.90
1411;DHT22;700;51.906;8.404;2022-11-09T18:53:11;14.90;99.90
1411;DHT22;700;51.906;8.404;2022-11-09T18:58:12;15.00;99.90
1411;DHT22;700;51.906;8.404;2022-11-09T19:03:13;14.70;99.90
1411;DHT22;700;51.906;8.404;2022-11-09T19:08:18;14.80;99.90
1411;DHT22;700;51.906;8.404;2022-11-09T19:13:39;14.60;99.90
1411;DHT22;700;51.906;8.404;2022-11-09T19:18:40;14.60;99.90
1411;DHT22;700;51.906;8.404;2022-11-09T19:23:40;14.60;99.90
1411;DHT22;700;51.906;8.404;2022-11-09T19:28:43;14.60;99.90
1411;DHT22;700;51.906;8.404;2022-11-09T19:33:47;14.60;99.90
1411;DHT22;700;51.906;8.404;2022-11-09T19:38:47;14.50;99.90
1411;DHT22;700;51.906;8.404;2022-11-09T19:43:50;14.50;99.90
1411;DHT22;700;51.906;8.404;2022-11-09T19:48:51;14.60;99.90
1411;DHT22;700;51.906;8.404;2022-11-09T19:53:56;14.70;99.90
1411;DHT22;700;51.906;8.404;2022-11-09T19:58:59;14.80;99.90
1411;DHT22;700;51.906;8.404;2022-11-09T20:04:00;14.60;99.90
1411;DHT22;700;51.906;8.404;2022-11-09T20:09:04;14.50;99.90
1411;DHT22;700;51.906;8.404;2022-11-09T20:14:06;14.50;99.90
1411;DHT22;700;51.906;8.404;2022-11-09T20:19:10;14.50;99.90
1411;DHT22;700;51.906;8.404;2022-11-09T20:24:11;14.60;99.90
1411;DHT22;700;51.906;8.404;2022-11-09T20:29:14;14.60;99.90
1411;DHT22;700;51.906;8.404;2022-11-09T20:34:15;14.50;99.90
1411;DHT22;700;51.906;8.404;2022-11-09T20:39:18;14.60;99.90
1411;DHT22;700;51.906;8.404;2022-11-09T20:44:18;14.50;99.90
1411;DHT22;700;51.906;8.404;2022-11-09T20:49:19;14.60;99.90
1411;DHT22;700;51.906;8.404;2022-11-09T20:54:22;14.60;99.90
1411;DHT22;700;51.906;8.404;2022-11-09T20:59:23;14.50;99.90
1411;DHT22;700;51.906;8.404;2022-11-09T21:04:23;14.70;99.90
1411;DHT22;700;51.906;8.404;2022-11-09T21:09:24;14.70;99.90
1411;DHT22;700;51.906;8.404;2022-11-09T21:14:27;14.60;99.90
1411;DHT22;700;51.906;8.404;2022-11-09T21:19:28;14.70;99.90
1411;DHT22;700;51.906;8.404;2022-11-09T21:24:29;14.60;99.90
1411;DHT22;700;51.906;8.404;2022-11-09T21:29:48;14.50;99.90
1411;DHT22;700;51.906;8.404;2022-11-09T21:34:51;14.30;99.90
1411;DHT22;700;51.906;8.404;2022-11-09T21:39:52;14.30;99.90
1411;DHT22;700;51.906;8.404;2022-11-09T21:44:53;14.20;99.90
1411;DHT22;700;51.906;8.404;2022-11-09T21:49:56;14.20;99.90
1411;DHT22;700;51.906;8.404;2022-11-09T21:54:56;14.10;99.90
1411;DHT22;700;51.906;8.404;2022-11-09T21:59:57;14.20;99.90
1411;DHT22;700;51.906;8.404;2022-11-09T22:04:58;14.10;99.90
1411;DHT22;700;51.906;8.404;2022-11-09T22:09:59;13.90;99.90
1411;DHT22;700;51.906;8.404;2022-11-09T22:15:00;14.00;99.90
1411;DHT22;700;51.906;8.404;2022-11-09T22:20:19;14.00;99.90
1411;DHT22;700;51.906;8.404;2022-11-09T22:25:38;13.90;99.90
1411;DHT22;700;51.906;8.404;2022-11-09T22:30:41;13.80;99.90
1411;DHT22;700;51.906;8.404;2022-11-09T22:35:44;13.60;99.90
1411;DHT22;700;51.906;8.404;2022-11-09T22:40:52;13.70;99.90
1411;DHT22;700;51.906;8.404;2022-11-09T22:45:55;13.60;99.90
1411;DHT22;700;51.906;8.404;2022-11-09T22:50:55;13.60;99.90
1411;DHT22;700;51.906;8.404;2022-11-09T22:55:58;13.60;99.90
1411;DHT22;700;51.906;8.404;2022-11-09T23:01:14;13.50;99.90
1411;DHT22;700;51.906;8.404;2022-11-09T23:06:18;13.60;99.90
1411;DHT22;700;51.906;8.404;2022-11-09T23:11:20;13.70;99.90
1411;DHT22;700;51.906;8.404;2022-11-09T23:16:24;13.70;99.90
1411;DHT22;700;51.906;8.404;2022-11-09T23:21:26;13.50;99.90
1411;DHT22;700;51.906;8.404;2022-11-09T23:26:28;13.50;99.90
1411;DHT22;700;51.906;8.404;2022-11-09T23:31:28;13.70;99.90
1411;DHT22;700;51.906;8.404;2022-11-09T23:36:29;13.70;99.90
1411;DHT22;700;51.906;8.404;2022-11-09T23:41:32;13.70;99.90
1411;DHT22;700;51.906;8.404;2022-11-09T23:46:32;13.90;99.90
1411;DHT22;700;51.906;8.404;2022-11-09T23:51:33;13.60;99.90
1411;DHT22;700;51.906;8.404;2022-11-09T23:56:34;13.70;99.90
